aviador You're here:

KMOB Decoded Metar

MOBILE in AL, USA
Report Time2017-06-25 19:56:00
UTC Time2017-06-25 20:39:47
Flight Rules vfr VFR
Wind020° at 09 kt
W.Decomp.*RWY 36: 8.4 kt HW 3.2 kt RCW
RWY 32: 4.4 kt HW 7.9 kt RCW
W.Rank020° ranks 11
Current wind is above 020° avg. (6.7)
Visibility9999 m
Phenomena:N/A
Clouds:Broken 037 Hf
Broken 100 Hf
Broken 250 Hf
Expected CloudBase > 4,000 ft AGL from Temp-Dew spread
Ceiling3,700 ft
Temp31°C (ISA +16)
Dew Point21°C (55% RH)
Heat Index33.7°C
QNH1019 hPa
Density Alt2,211 ft
Elevation207 ft
Report Wrong Elevation
Raw Report
KMOB 251956Z 02009KT 10SM BKN037 BKN100 BKN250 31/21 A3010 RMK AO2
LTG DSNT S AND SW SLP189 CB DSNT S-NW T03110211=

Extra information for KMOB:More info

Metar Taf Metar & Taf Last 4 Metars F.Rules Stats Wind Profile Meteogram Temp Stats Airport Information Weather charts Add Link Nearby VenuesMetar ALERT Operation Metar Decoded Social comments

AIRNAV info for KMOB